createdAt,value
2019-02-28T00:00:17.431Z,5.85
2019-02-28T00:02:44.301Z,5.85
2019-02-28T00:05:11.089Z,6.08
2019-02-28T00:07:37.949Z,6.50
2019-02-28T00:10:08.431Z,5.87
2019-02-28T00:12:35.161Z,6.28
2019-02-28T00:15:04.630Z,6.05
2019-02-28T00:17:31.398Z,6.58
2019-02-28T00:20:00.353Z,6.40
2019-02-28T00:22:27.295Z,6.55
2019-02-28T00:24:54.401Z,6.42
2019-02-28T00:27:22.164Z,6.67
2019-02-28T00:29:49.122Z,6.55
2019-02-28T00:32:16.013Z,6.62
2019-02-28T00:34:42.859Z,5.83
2019-02-28T00:37:10.098Z,5.62
2019-02-28T00:39:37.312Z,6.05
2019-02-28T00:42:04.077Z,5.90
2019-02-28T00:44:31.424Z,5.85
2019-02-28T00:46:58.418Z,5.97
2019-02-28T00:49:27.915Z,5.55
2019-02-28T00:51:54.885Z,5.25
2019-02-28T00:54:21.612Z,5.70
2019-02-28T00:56:52.530Z,5.60
2019-02-28T00:59:17.210Z,5.65
2019-02-28T01:01:47.057Z,5.70
2019-02-28T01:04:14.249Z,5.15
2019-02-28T01:06:41.890Z,5.65
2019-02-28T01:09:11.247Z,5.15
2019-02-28T01:11:38.123Z,6.15
2019-02-28T01:14:05.033Z,5.92
2019-02-28T01:16:33.741Z,6.00
2019-02-28T01:19:00.888Z,5.47
2019-02-28T01:21:27.770Z,5.50
2019-02-28T01:23:54.546Z,5.53
2019-02-28T01:26:22.063Z,5.97
2019-02-28T01:28:48.801Z,5.53
2019-02-28T01:31:16.042Z,6.58
2019-02-28T01:33:43.365Z,5.87
2019-02-28T01:36:12.297Z,6.00
2019-02-28T01:38:39.203Z,5.90
2019-02-28T01:41:08.364Z,5.67
2019-02-28T01:43:34.915Z,6.03
2019-02-28T01:46:01.748Z,5.53
2019-02-28T01:48:28.690Z,5.90
2019-02-28T01:50:55.431Z,5.70
2019-02-28T01:53:22.191Z,5.83
2019-02-28T01:55:51.878Z,5.53
2019-02-28T01:58:18.580Z,5.37
2019-02-28T02:00:45.891Z,5.65
2019-02-28T02:03:12.634Z,5.70
2019-02-28T02:05:42.630Z,5.92
2019-02-28T02:08:09.741Z,5.70
2019-02-28T02:10:36.819Z,5.00
2019-02-28T02:13:04.341Z,5.50
2019-02-28T02:15:31.448Z,5.30
2019-02-28T02:17:58.201Z,5.55
2019-02-28T02:20:26.239Z,5.47
2019-02-28T02:22:53.694Z,6.10
2019-02-28T02:25:21.209Z,5.67
2019-02-28T02:27:52.773Z,5.80
2019-02-28T02:30:23.438Z,5.83
2019-02-28T02:32:50.310Z,5.78
2019-02-28T02:35:17.110Z,5.53
2019-02-28T02:37:44.760Z,5.30
2019-02-28T02:40:14.225Z,5.67
2019-02-28T02:42:47.200Z,5.40
2019-02-28T02:45:12.768Z,5.35
2019-02-28T02:47:39.715Z,5.58
2019-02-28T02:50:10.991Z,5.60
2019-02-28T02:52:37.854Z,5.60
2019-02-28T02:55:06.133Z,5.45
2019-02-28T02:57:33.191Z,5.42
2019-02-28T03:00:00.062Z,6.03
2019-02-28T03:02:28.671Z,5.70
2019-02-28T03:04:58.525Z,5.28
2019-02-28T03:07:25.022Z,6.20
2019-02-28T03:09:52.358Z,5.42
2019-02-28T03:12:19.207Z,5.40
2019-02-28T03:14:48.743Z,5.55
2019-02-28T03:17:17.777Z,5.65
2019-02-28T03:19:44.863Z,5.15
2019-02-28T03:22:11.878Z,5.75
2019-02-28T03:24:38.833Z,5.37
2019-02-28T03:27:05.600Z,5.28
2019-02-28T03:29:32.370Z,5.60
2019-02-28T03:31:59.949Z,5.50
2019-02-28T03:34:26.995Z,5.40
2019-02-28T03:36:56.915Z,5.45
2019-02-28T03:39:24.510Z,5.50
2019-02-28T03:41:52.994Z,5.65
2019-02-28T03:44:21.526Z,5.50
2019-02-28T03:46:48.945Z,5.25
2019-02-28T03:49:16.359Z,5.17
2019-02-28T03:51:43.094Z,5.37
2019-02-28T03:54:10.060Z,6.05
2019-02-28T03:56:36.803Z,5.92
2019-02-28T03:59:04.073Z,5.83
2019-02-28T04:01:30.947Z,5.67
2019-02-28T04:03:58.149Z,5.50
2019-02-28T04:06:25.373Z,5.92
2019-02-28T04:08:52.217Z,5.53
2019-02-28T04:11:18.991Z,5.20
2019-02-28T04:13:46.140Z,5.50
2019-02-28T04:16:12.995Z,5.58
2019-02-28T04:18:44.143Z,5.75
2019-02-28T04:21:10.162Z,5.62
2019-02-28T04:23:37.506Z,5.80
2019-02-28T04:26:05.002Z,5.70
2019-02-28T04:28:34.783Z,5.47
2019-02-28T04:31:01.929Z,5.62
2019-02-28T04:33:28.730Z,5.97
2019-02-28T04:35:56.798Z,5.90
2019-02-28T04:38:26.096Z,6.50
2019-02-28T04:40:52.886Z,5.75
2019-02-28T04:43:19.599Z,6.08
2019-02-28T04:45:46.796Z,5.65
2019-02-28T04:48:14.628Z,6.33
2019-02-28T04:50:41.496Z,5.55
2019-02-28T04:53:08.264Z,5.35
2019-02-28T04:55:37.163Z,6.05
2019-02-28T04:58:04.059Z,5.75
2019-02-28T05:00:31.179Z,5.83
2019-02-28T05:02:58.238Z,6.40
2019-02-28T05:05:25.193Z,5.67
2019-02-28T05:07:52.026Z,6.05
2019-02-28T05:10:19.294Z,6.22
2019-02-28T05:12:48.000Z,6.03
2019-02-28T05:15:14.949Z,7.33
2019-02-28T05:17:41.710Z,6.10
2019-02-28T05:20:11.050Z,5.60
2019-02-28T05:22:38.574Z,5.58
2019-02-28T05:25:08.075Z,6.90
2019-02-28T05:27:35.348Z,5.92
2019-02-28T05:30:17.947Z,6.70
2019-02-28T05:32:42.475Z,6.03
2019-02-28T05:35:09.640Z,6.15
2019-02-28T05:37:36.460Z,6.17
2019-02-28T05:40:09.105Z,6.53
2019-02-28T05:42:35.843Z,6.20
2019-02-28T05:45:05.046Z,6.15
2019-02-28T05:47:33.106Z,6.05
2019-02-28T05:50:00.459Z,6.35
2019-02-28T05:52:27.314Z,6.35
2019-02-28T05:54:54.549Z,6.35
2019-02-28T05:57:21.336Z,6.03
2019-02-28T05:59:48.184Z,6.75
2019-02-28T06:02:15.337Z,5.90
2019-02-28T06:04:42.250Z,6.50
2019-02-28T06:07:09.472Z,6.80
2019-02-28T06:09:36.356Z,6.45
2019-02-28T06:12:03.314Z,6.58
2019-02-28T06:14:30.126Z,6.60
2019-02-28T06:16:56.976Z,6.72
2019-02-28T06:19:23.709Z,6.83
2019-02-28T06:21:50.516Z,6.92
2019-02-28T06:24:17.254Z,7.12
2019-02-28T06:26:44.252Z,6.60
2019-02-28T06:29:11.024Z,6.55
2019-02-28T06:31:37.812Z,6.50
2019-02-28T06:34:05.636Z,6.85
2019-02-28T06:36:33.738Z,7.20
2019-02-28T06:39:00.504Z,6.37
2019-02-28T06:41:27.793Z,7.35
2019-02-28T06:43:55.318Z,7.00
2019-02-28T06:46:22.101Z,6.97
2019-02-28T06:48:49.202Z,7.92
2019-02-28T06:51:17.554Z,7.42
2019-02-28T06:53:44.580Z,7.42
2019-02-28T06:56:11.689Z,7.40
2019-02-28T06:58:38.631Z,7.62
2019-02-28T07:01:05.581Z,8.10
2019-02-28T07:03:35.120Z,8.23
2019-02-28T07:06:01.978Z,7.95
2019-02-28T07:08:29.077Z,7.95
2019-02-28T07:10:55.961Z,8.33
2019-02-28T07:13:23.171Z,8.03
2019-02-28T07:15:49.947Z,7.67
2019-02-28T07:18:18.832Z,7.78
2019-02-28T07:20:47.163Z,8.83
2019-02-28T07:23:16.538Z,7.58
2019-02-28T07:25:44.324Z,7.85
2019-02-28T07:28:12.041Z,7.70
2019-02-28T07:30:38.817Z,7.42
2019-02-28T07:33:09.549Z,7.62
2019-02-28T07:35:36.808Z,7.33
2019-02-28T07:38:03.224Z,7.50
2019-02-28T07:40:33.117Z,7.65
2019-02-28T07:42:59.922Z,7.10
2019-02-28T07:45:29.684Z,7.70
2019-02-28T07:47:55.650Z,7.47
2019-02-28T07:50:22.815Z,7.85
2019-02-28T07:52:50.195Z,7.75
2019-02-28T07:55:20.304Z,7.15
2019-02-28T07:57:51.181Z,7.50
2019-02-28T08:00:21.862Z,7.67
2019-02-28T08:02:49.034Z,8.28
2019-02-28T08:05:16.452Z,7.83
2019-02-28T08:07:50.932Z,8.40
2019-02-28T08:10:28.519Z,7.67
2019-02-28T08:12:55.656Z,8.23
2019-02-28T08:15:24.585Z,8.10
2019-02-28T08:17:52.135Z,8.10
2019-02-28T08:20:19.756Z,7.65
2019-02-28T08:22:46.551Z,7.78
2019-02-28T08:25:14.820Z,8.53
2019-02-28T08:27:41.921Z,10.45
2019-02-28T08:30:19.223Z,11.70
2019-02-28T08:32:47.072Z,13.93
2019-02-28T08:35:14.202Z,15.00
2019-02-28T08:37:42.457Z,15.50
2019-02-28T08:40:15.793Z,15.38
2019-02-28T08:42:44.865Z,15.35
2019-02-28T08:45:14.346Z,15.08
2019-02-28T08:47:42.164Z,14.98
2019-02-28T08:50:19.138Z,15.35
2019-02-28T08:52:44.730Z,14.83
2019-02-28T08:55:14.349Z,14.15
2019-02-28T08:57:44.127Z,14.23
2019-02-28T09:00:17.995Z,13.88
2019-02-28T09:02:52.200Z,14.20
2019-02-28T09:05:17.256Z,14.83
2019-02-28T09:07:50.743Z,13.40
2019-02-28T09:10:22.989Z,15.00
2019-02-28T09:12:50.651Z,16.45
2019-02-28T09:15:18.238Z,17.15
2019-02-28T09:17:45.838Z,15.95
2019-02-28T09:20:13.887Z,17.32
2019-02-28T09:22:40.748Z,16.87
2019-02-28T09:25:21.977Z,17.82
2019-02-28T09:27:47.472Z,17.98
2019-02-28T09:30:29.633Z,16.93
2019-02-28T09:32:57.780Z,16.15
2019-02-28T09:35:24.685Z,17.95
2019-02-28T09:37:52.025Z,28.52
2019-02-28T09:40:18.912Z,15.63
2019-02-28T09:42:47.848Z,27.87
2019-02-28T09:45:24.042Z,20.30
2019-02-28T09:47:50.731Z,15.85
2019-02-28T09:50:22.437Z,16.30
2019-02-28T09:52:49.186Z,14.43
2019-02-28T09:55:15.990Z,14.75
2019-02-28T09:57:42.767Z,15.60
2019-02-28T10:00:16.491Z,14.70
2019-02-28T10:02:44.047Z,15.10
2019-02-28T10:05:12.310Z,15.40
2019-02-28T10:07:39.171Z,14.58
2019-02-28T10:10:20.873Z,14.65
2019-02-28T10:12:47.206Z,14.20
2019-02-28T10:15:21.466Z,13.58
2019-02-28T10:17:48.303Z,13.78
2019-02-28T10:20:34.675Z,14.78
2019-02-28T10:23:01.649Z,14.63
2019-02-28T10:25:28.631Z,14.20
2019-02-28T10:28:01.657Z,14.43
2019-02-28T10:30:31.676Z,14.78
2019-02-28T10:32:54.897Z,14.10
2019-02-28T10:35:22.171Z,15.43
2019-02-28T10:37:49.126Z,13.95
2019-02-28T10:40:28.033Z,14.47
2019-02-28T10:42:54.954Z,15.03
2019-02-28T10:45:22.860Z,16.87
2019-02-28T10:47:51.659Z,15.83
2019-02-28T10:50:34.536Z,14.38
2019-02-28T10:53:05.588Z,14.65
2019-02-28T10:55:34.008Z,14.83
2019-02-28T10:58:06.150Z,14.40
2019-02-28T11:00:42.328Z,14.20
2019-02-28T11:03:09.381Z,15.68
2019-02-28T11:05:40.390Z,13.95
2019-02-28T11:08:12.975Z,13.83
2019-02-28T11:10:40.246Z,14.10
2019-02-28T11:13:12.251Z,13.25
2019-02-28T11:15:39.359Z,13.98
2019-02-28T11:18:09.662Z,13.10
2019-02-28T11:20:35.819Z,12.95
2019-02-28T11:23:03.083Z,13.20
2019-02-28T11:25:34.553Z,13.68
2019-02-28T11:27:59.046Z,13.13
2019-02-28T11:30:27.819Z,13.55
2019-02-28T11:32:54.801Z,13.18
2019-02-28T11:35:24.017Z,13.43
2019-02-28T11:37:51.672Z,13.80
2019-02-28T11:40:21.583Z,13.55
2019-02-28T11:42:50.478Z,13.08
2019-02-28T11:45:35.701Z,12.18
2019-02-28T11:48:12.920Z,13.30
2019-02-28T11:50:42.453Z,12.98
2019-02-28T11:53:09.741Z,12.78
2019-02-28T11:55:37.124Z,13.28
2019-02-28T11:58:04.510Z,13.38
2019-02-28T12:00:38.410Z,13.40
2019-02-28T12:03:05.891Z,13.75
2019-02-28T12:05:33.340Z,13.98
2019-02-28T12:08:00.369Z,13.75
2019-02-28T12:10:28.287Z,12.65
2019-02-28T12:12:56.421Z,13.20
2019-02-28T12:15:33.644Z,13.25
2019-02-28T12:18:04.803Z,12.15
2019-02-28T12:20:32.451Z,13.30
2019-02-28T12:23:01.749Z,14.93
2019-02-28T12:25:29.105Z,13.58
2019-02-28T12:27:59.342Z,13.38
2019-02-28T12:30:32.058Z,13.32
2019-02-28T12:32:59.804Z,14.57
2019-02-28T12:35:27.722Z,14.93
2019-02-28T12:37:55.903Z,15.50
2019-02-28T12:40:34.443Z,15.20
2019-02-28T12:43:08.708Z,14.15
2019-02-28T12:45:39.748Z,14.90
2019-02-28T12:48:07.745Z,14.63
2019-02-28T12:50:35.899Z,14.80
2019-02-28T12:53:03.950Z,15.18
2019-02-28T12:55:38.555Z,15.15
2019-02-28T12:58:04.309Z,15.45
2019-02-28T13:00:40.878Z,15.23
2019-02-28T13:03:10.199Z,14.68
2019-02-28T13:05:37.130Z,15.18
2019-02-28T13:08:05.783Z,15.15
2019-02-28T13:10:34.253Z,16.10
2019-02-28T13:13:06.665Z,15.05
2019-02-28T13:15:38.293Z,15.08
2019-02-28T13:18:09.166Z,15.40
2019-02-28T13:20:37.592Z,14.18
2019-02-28T13:23:05.337Z,14.63
2019-02-28T13:25:33.515Z,13.50
2019-02-28T13:28:01.216Z,15.23
2019-02-28T13:30:28.902Z,14.53
2019-02-28T13:32:56.330Z,13.75
2019-02-28T13:35:32.530Z,14.83
2019-02-28T13:38:00.166Z,14.25
2019-02-28T13:40:28.544Z,14.03
2019-02-28T13:42:56.975Z,13.95
2019-02-28T13:45:25.994Z,15.10
2019-02-28T13:47:53.580Z,15.53
2019-02-28T13:50:27.958Z,13.93
2019-02-28T13:52:55.503Z,15.13
2019-02-28T13:55:24.597Z,15.05
2019-02-28T13:57:51.992Z,15.00
2019-02-28T14:00:22.705Z,13.98
2019-02-28T14:02:53.714Z,13.90
2019-02-28T14:05:21.686Z,13.38
2019-02-28T14:07:49.710Z,13.50
2019-02-28T14:10:19.623Z,13.18
2019-02-28T14:12:47.230Z,13.13
2019-02-28T14:15:25.124Z,14.25
2019-02-28T14:17:53.883Z,13.35
2019-02-28T14:20:24.447Z,17.00
2019-02-28T14:22:50.189Z,13.55
2019-02-28T14:25:18.161Z,13.10
2019-02-28T14:27:45.360Z,11.97
2019-02-28T14:30:14.325Z,12.78
2019-02-28T14:32:42.319Z,12.65
2019-02-28T14:35:12.843Z,13.10
2019-02-28T14:37:39.647Z,13.48
2019-02-28T14:40:14.586Z,14.40
2019-02-28T14:42:43.510Z,14.30
2019-02-28T14:45:42.741Z,14.87
2019-02-28T14:48:08.891Z,17.05
2019-02-28T14:50:35.945Z,15.25
2019-02-28T14:53:02.893Z,15.50
2019-02-28T14:55:34.183Z,15.78
2019-02-28T14:58:05.853Z,16.23
2019-02-28T15:00:35.340Z,15.98
2019-02-28T15:03:03.915Z,15.28
2019-02-28T15:05:37.582Z,16.25
2019-02-28T15:08:04.478Z,16.12
2019-02-28T15:10:39.110Z,16.45
2019-02-28T15:13:08.727Z,16.02
2019-02-28T15:15:37.567Z,16.55
2019-02-28T15:18:04.392Z,15.80
2019-02-28T15:20:32.859Z,16.52
2019-02-28T15:23:03.207Z,16.23
2019-02-28T15:25:29.992Z,17.48
2019-02-28T15:27:57.442Z,18.02
2019-02-28T15:30:30.488Z,17.55
2019-02-28T15:32:56.770Z,22.62
2019-02-28T15:35:23.549Z,18.92
2019-02-28T15:37:50.732Z,17.67
2019-02-28T15:40:24.723Z,18.62
2019-02-28T15:42:50.997Z,17.42
2019-02-28T15:45:17.983Z,17.98
2019-02-28T15:47:44.761Z,16.80
2019-02-28T15:50:17.158Z,17.67
2019-02-28T15:52:44.143Z,16.48
2019-02-28T15:55:21.153Z,15.60
2019-02-28T15:57:47.980Z,15.83
2019-02-28T16:00:29.885Z,16.40
2019-02-28T16:02:56.884Z,16.00
2019-02-28T16:05:24.126Z,15.90
2019-02-28T16:07:51.153Z,15.53
2019-02-28T16:10:28.527Z,15.60
2019-02-28T16:12:57.090Z,14.18
2019-02-28T16:15:24.042Z,13.10
2019-02-28T16:17:53.307Z,12.10
2019-02-28T16:20:20.524Z,10.43
2019-02-28T16:22:52.152Z,9.80
2019-02-28T16:25:30.873Z,10.70
2019-02-28T16:27:57.823Z,8.58
2019-02-28T16:30:25.027Z,9.93
2019-02-28T16:32:52.054Z,8.75
2019-02-28T16:35:19.233Z,9.23
2019-02-28T16:37:46.047Z,9.60
2019-02-28T16:40:26.166Z,9.05
2019-02-28T16:42:53.995Z,8.88
2019-02-28T16:45:29.302Z,8.98
2019-02-28T16:47:59.555Z,10.05
2019-02-28T16:50:25.069Z,11.08
2019-02-28T16:52:51.855Z,11.38
2019-02-28T16:55:18.696Z,10.50
2019-02-28T16:57:47.053Z,12.03
2019-02-28T17:00:16.094Z,12.65
2019-02-28T17:02:43.264Z,11.43
2019-02-28T17:05:10.836Z,11.57
2019-02-28T17:07:40.492Z,12.20
2019-02-28T17:10:11.657Z,11.25
2019-02-28T17:12:40.416Z,12.30
2019-02-28T17:15:12.092Z,12.95
2019-02-28T17:17:43.471Z,13.13
2019-02-28T17:20:09.895Z,14.28
2019-02-28T17:22:36.764Z,15.72
2019-02-28T17:25:04.938Z,15.50
2019-02-28T17:27:33.561Z,15.30
2019-02-28T17:30:06.201Z,16.12
2019-02-28T17:32:33.219Z,16.17
2019-02-28T17:35:00.400Z,15.45
2019-02-28T17:37:27.392Z,14.90
2019-02-28T17:39:57.044Z,14.73
2019-02-28T17:42:23.885Z,14.25
2019-02-28T17:44:59.735Z,13.60
2019-02-28T17:47:59.571Z,22.52
2019-02-28T17:50:35.017Z,63.02
2019-02-28T17:53:19.109Z,17.57
2019-02-28T17:56:29.482Z,13.60
2019-02-28T17:59:36.058Z,15.23
2019-02-28T18:02:28.777Z,10.80
2019-02-28T18:05:29.871Z,11.70
2019-02-28T18:07:57.815Z,9.65
2019-02-28T18:11:00.883Z,14.50
2019-02-28T18:13:52.250Z,7.97
2019-02-28T18:16:44.065Z,8.53
2019-02-28T18:19:39.496Z,9.08
2019-02-28T18:22:42.105Z,7.72
2019-02-28T18:25:32.746Z,7.15
2019-02-28T18:28:30.070Z,6.47
2019-02-28T18:31:14.148Z,5.20
2019-02-28T18:33:49.138Z,4.70
2019-02-28T18:36:20.265Z,4.92
2019-02-28T18:38:47.020Z,5.03
2019-02-28T18:41:14.100Z,4.67
2019-02-28T18:43:40.824Z,4.90
2019-02-28T18:46:07.765Z,4.40
2019-02-28T18:48:35.096Z,4.28
2019-02-28T18:51:01.887Z,4.25
2019-02-28T18:53:29.047Z,4.30
2019-02-28T18:55:55.908Z,5.37
2019-02-28T18:58:22.685Z,4.53
2019-02-28T19:00:49.883Z,4.97
2019-02-28T19:03:16.616Z,4.65
2019-02-28T19:05:43.783Z,4.60
2019-02-28T19:08:11.050Z,5.10
2019-02-28T19:10:38.622Z,5.08
2019-02-28T19:13:05.397Z,4.17
2019-02-28T19:15:32.181Z,4.62
2019-02-28T19:17:58.918Z,5.12
2019-02-28T19:20:25.714Z,4.15
2019-02-28T19:22:52.460Z,3.65
2019-02-28T19:25:19.257Z,3.42
2019-02-28T19:27:46.028Z,3.92
2019-02-28T19:30:14.476Z,4.33
2019-02-28T19:32:41.242Z,4.87
2019-02-28T19:35:08.732Z,4.20
2019-02-28T19:37:35.816Z,5.45
2019-02-28T19:40:06.991Z,5.05
2019-02-28T19:42:33.886Z,5.42
2019-02-28T19:45:00.684Z,4.37
2019-02-28T19:47:27.820Z,6.10
2019-02-28T19:49:54.645Z,3.98
2019-02-28T19:52:21.440Z,3.62
2019-02-28T19:54:48.429Z,4.22
2019-02-28T19:57:15.178Z,4.33
2019-02-28T19:59:41.920Z,3.80
2019-02-28T20:02:08.704Z,3.70
2019-02-28T20:04:35.445Z,3.75
2019-02-28T20:07:02.411Z,4.00
2019-02-28T20:09:29.224Z,3.40
2019-02-28T20:11:56.360Z,3.77
2019-02-28T20:14:25.073Z,4.17
2019-02-28T20:16:52.005Z,4.30
2019-02-28T20:19:19.232Z,3.50
2019-02-28T20:21:46.066Z,4.42
2019-02-28T20:24:13.181Z,12.82
2019-02-28T20:26:39.981Z,8.90
2019-02-28T20:29:07.198Z,18.10
2019-02-28T20:31:33.978Z,6.75
2019-02-28T20:34:00.927Z,9.20
2019-02-28T20:36:27.747Z,11.22
2019-02-28T20:38:54.780Z,4.65
2019-02-28T20:41:22.023Z,4.62
2019-02-28T20:43:48.863Z,5.00
2019-02-28T20:46:16.844Z,4.08
2019-02-28T20:48:45.752Z,3.50
2019-02-28T20:51:12.833Z,3.62
2019-02-28T20:53:39.905Z,3.50
2019-02-28T20:56:06.810Z,3.70
2019-02-28T20:58:34.049Z,3.80
2019-02-28T21:01:01.060Z,3.80
2019-02-28T21:03:27.929Z,3.72
2019-02-28T21:05:56.209Z,3.55
2019-02-28T21:08:23.290Z,3.65
2019-02-28T21:10:50.413Z,3.58
2019-02-28T21:13:17.181Z,3.02
2019-02-28T21:15:44.320Z,2.90
2019-02-28T21:18:11.090Z,3.40
2019-02-28T21:20:38.539Z,3.17
2019-02-28T21:23:05.314Z,3.87
2019-02-28T21:25:32.070Z,3.35
2019-02-28T21:27:58.828Z,3.58
2019-02-28T21:30:26.785Z,3.58
2019-02-28T21:32:53.587Z,3.12
2019-02-28T21:35:20.441Z,2.80
2019-02-28T21:37:47.323Z,3.83
2019-02-28T21:40:16.858Z,2.98
2019-02-28T21:42:43.796Z,2.90
2019-02-28T21:45:23.246Z,3.42
2019-02-28T21:47:50.059Z,3.47
2019-02-28T21:50:17.044Z,2.80
2019-02-28T21:52:44.101Z,2.67
2019-02-28T21:55:13.557Z,2.72
2019-02-28T21:57:40.297Z,2.98
2019-02-28T22:00:11.780Z,2.92
2019-02-28T22:02:38.505Z,3.10
2019-02-28T22:05:12.171Z,3.25
2019-02-28T22:10:15.361Z,3.30
2019-02-28T22:12:42.200Z,2.92
2019-02-28T22:15:21.540Z,2.60
2019-02-28T22:17:48.742Z,2.80
2019-02-28T22:20:15.670Z,2.67
2019-02-28T22:22:42.694Z,2.40
2019-02-28T22:25:14.763Z,2.65
2019-02-28T22:27:41.520Z,2.22
2019-02-28T22:30:27.226Z,2.30
2019-02-28T22:35:24.436Z,2.22
2019-02-28T22:37:51.802Z,1.77
2019-02-28T22:40:18.535Z,2.17
2019-02-28T22:42:45.464Z,2.40
2019-02-28T22:45:12.244Z,3.15
2019-02-28T22:47:41.804Z,2.72
2019-02-28T22:50:08.577Z,2.30
2019-02-28T22:52:35.684Z,2.90
2019-02-28T22:55:07.283Z,2.67
2019-02-28T22:57:34.099Z,3.02
2019-02-28T23:00:01.314Z,2.42
2019-02-28T23:02:28.779Z,2.62
2019-02-28T23:04:56.327Z,2.42
2019-02-28T23:07:46.603Z,2.72
2019-02-28T23:10:14.044Z,2.52
2019-02-28T23:12:42.091Z,2.50
2019-02-28T23:15:10.111Z,3.10
2019-02-28T23:17:37.992Z,2.80
2019-02-28T23:20:08.053Z,2.90
2019-02-28T23:22:36.096Z,2.85
2019-02-28T23:25:07.053Z,3.20
2019-02-28T23:27:33.841Z,2.92
2019-02-28T23:30:15.077Z,2.27
2019-02-28T23:32:47.586Z,2.10
2019-02-28T23:35:20.469Z,2.70
2019-02-28T23:37:47.244Z,2.00
2019-02-28T23:40:14.231Z,2.40
2019-02-28T23:42:41.129Z,2.08
2019-02-28T23:45:08.181Z,2.15
2019-02-28T23:47:34.942Z,2.22
2019-02-28T23:50:04.943Z,1.82
2019-02-28T23:52:31.650Z,1.90
2019-02-28T23:54:58.429Z,2.00
2019-02-28T23:57:25.170Z,2.30
2019-02-28T23:59:52.022Z,2.42
